createdAt,value
2023-01-19T00:00:47.600Z,93.96
2023-01-19T00:02:51.143Z,93.81
2023-01-19T00:04:53.958Z,93.12
2023-01-19T00:06:56.937Z,93.43
2023-01-19T00:09:00.168Z,93.23
2023-01-19T00:11:03.269Z,93.06
2023-01-19T00:13:06.167Z,92.57
2023-01-19T00:15:10.295Z,93.23
2023-01-19T00:17:14.651Z,92.45
2023-01-19T00:19:17.730Z,92.07
2023-01-19T00:21:22.052Z,92.37
2023-01-19T00:23:26.288Z,93.16
2023-01-19T00:25:29.287Z,93.98
2023-01-19T00:27:35.207Z,94.17
2023-01-19T00:29:38.085Z,93.86
2023-01-19T00:31:41.182Z,93.75
2023-01-19T00:33:49.190Z,93.72
2023-01-19T00:35:53.259Z,93.29
2023-01-19T00:37:56.889Z,93.76
2023-01-19T00:39:59.848Z,93.39
2023-01-19T00:42:21.248Z,93.41
2023-01-19T00:44:24.158Z,93.18
2023-01-19T00:46:27.529Z,93.06
2023-01-19T00:48:31.086Z,92.57
2023-01-19T00:50:35.655Z,92.22
2023-01-19T00:52:39.092Z,92.38
2023-01-19T00:54:41.887Z,93.14
2023-01-19T00:56:44.769Z,93.70
2023-01-19T00:58:47.689Z,93.59
2023-01-19T01:00:50.652Z,93.42
2023-01-19T01:02:54.147Z,93.49
2023-01-19T01:04:57.136Z,93.74
2023-01-19T01:07:01.550Z,93.24
2023-01-19T01:09:12.229Z,93.23
2023-01-19T01:11:15.128Z,93.06
2023-01-19T01:13:21.937Z,93.00
2023-01-19T01:15:27.050Z,93.19
2023-01-19T01:17:30.048Z,92.57
2023-01-19T01:19:32.904Z,92.55
2023-01-19T01:21:36.040Z,93.05
2023-01-19T01:23:40.392Z,93.04
2023-01-19T01:25:43.768Z,92.21
2023-01-19T01:27:46.674Z,92.61
2023-01-19T01:29:49.627Z,93.03
2023-01-19T01:31:52.609Z,93.33
2023-01-19T01:33:55.689Z,93.67
2023-01-19T01:35:59.109Z,93.64
2023-01-19T01:38:02.120Z,93.56
2023-01-19T01:40:07.843Z,93.13
2023-01-19T01:42:17.891Z,93.38
2023-01-19T01:44:50.217Z,93.48
2023-01-19T01:46:53.270Z,93.91
2023-01-19T01:48:59.593Z,93.77
2023-01-19T01:51:23.688Z,94.29
2023-01-19T01:53:27.288Z,94.44
2023-01-19T01:55:32.167Z,94.38
2023-01-19T01:57:37.563Z,94.40
2023-01-19T01:59:42.970Z,94.41
2023-01-19T02:02:04.475Z,94.29
2023-01-19T02:04:07.940Z,94.71
2023-01-19T02:06:10.968Z,94.41
2023-01-19T02:08:34.653Z,94.18
2023-01-19T02:10:58.507Z,94.00
2023-01-19T02:13:20.067Z,94.02
2023-01-19T02:15:23.055Z,94.25
2023-01-19T02:17:26.128Z,93.77
2023-01-19T02:19:34.258Z,93.66
2023-01-19T02:21:43.213Z,93.78
2023-01-19T02:23:49.729Z,93.62
2023-01-19T02:25:53.890Z,93.58
2023-01-19T02:27:57.417Z,93.56
2023-01-19T02:30:03.926Z,93.72
2023-01-19T02:32:07.489Z,93.97
2023-01-19T02:34:11.929Z,93.94
2023-01-19T02:36:16.295Z,94.39
2023-01-19T02:38:20.197Z,93.91
2023-01-19T02:40:25.338Z,94.53
2023-01-19T02:42:30.410Z,94.62
2023-01-19T02:44:34.530Z,94.00
2023-01-19T02:46:37.749Z,94.26
2023-01-19T02:48:40.702Z,93.94
2023-01-19T02:50:50.082Z,94.01
2023-01-19T02:52:54.049Z,93.36
2023-01-19T02:55:05.157Z,93.66
2023-01-19T02:57:25.220Z,93.05
2023-01-19T02:59:39.013Z,93.29
2023-01-19T03:02:11.586Z,93.34
2023-01-19T03:04:22.259Z,93.15
2023-01-19T03:06:33.491Z,93.07
2023-01-19T03:08:44.688Z,93.66
2023-01-19T03:10:54.251Z,93.60
2023-01-19T03:13:03.875Z,92.89
2023-01-19T03:15:14.458Z,93.18
2023-01-19T03:17:19.489Z,93.15
2023-01-19T03:19:24.530Z,93.36
2023-01-19T03:21:28.410Z,93.16
2023-01-19T03:23:32.818Z,93.07
2023-01-19T03:25:38.358Z,92.96
2023-01-19T03:27:43.007Z,92.90
2023-01-19T03:29:51.155Z,92.77
2023-01-19T03:31:54.878Z,92.82
2023-01-19T03:34:00.318Z,92.73
2023-01-19T03:36:06.496Z,92.68
2023-01-19T03:38:16.339Z,92.73
2023-01-19T03:40:19.477Z,92.76
2023-01-19T03:42:23.568Z,92.49
2023-01-19T03:44:28.514Z,93.07
2023-01-19T03:46:33.690Z,93.05
2023-01-19T03:48:36.659Z,92.97
2023-01-19T03:50:39.789Z,92.84
2023-01-19T03:52:42.767Z,92.85
2023-01-19T03:54:45.808Z,92.80
2023-01-19T03:56:48.587Z,92.53
2023-01-19T03:58:52.099Z,93.00
2023-01-19T04:00:55.139Z,92.70
2023-01-19T04:02:59.960Z,92.82
2023-01-19T04:05:03.087Z,92.76
2023-01-19T04:07:06.067Z,92.85
2023-01-19T04:09:09.073Z,92.64
2023-01-19T04:11:12.647Z,93.00
2023-01-19T04:13:15.488Z,93.14
2023-01-19T04:15:18.927Z,92.91
2023-01-19T04:17:21.752Z,92.78
2023-01-19T04:19:26.376Z,92.89
2023-01-19T04:21:29.208Z,93.01
2023-01-19T04:23:32.300Z,92.66
2023-01-19T04:25:35.952Z,92.53
2023-01-19T04:27:40.207Z,92.38
2023-01-19T04:29:43.128Z,92.32
2023-01-19T04:31:46.089Z,92.48
2023-01-19T04:33:49.166Z,92.39
2023-01-19T04:35:54.575Z,92.11
2023-01-19T04:37:57.607Z,92.15
2023-01-19T04:40:00.501Z,92.18
2023-01-19T04:42:03.486Z,91.94
2023-01-19T04:44:06.567Z,91.98
2023-01-19T04:46:09.460Z,92.34
2023-01-19T04:48:12.690Z,92.46
2023-01-19T04:50:15.588Z,92.00
2023-01-19T04:52:20.139Z,92.31
2023-01-19T04:54:23.496Z,92.34
2023-01-19T04:56:26.384Z,92.32
2023-01-19T04:58:29.190Z,92.36
2023-01-19T05:00:32.173Z,92.78
2023-01-19T05:02:35.326Z,92.13
2023-01-19T05:04:38.166Z,92.50
2023-01-19T05:06:41.015Z,92.30
2023-01-19T05:08:45.605Z,92.50
2023-01-19T05:10:49.297Z,92.46
2023-01-19T05:12:52.292Z,92.35
2023-01-19T05:14:55.109Z,92.55
2023-01-19T05:16:58.232Z,92.38
2023-01-19T05:19:01.121Z,92.83
2023-01-19T05:21:04.402Z,92.84
2023-01-19T05:23:07.249Z,92.93
2023-01-19T05:25:11.811Z,93.08
2023-01-19T05:27:14.721Z,92.95
2023-01-19T05:29:17.770Z,93.01
2023-01-19T05:31:20.914Z,92.93
2023-01-19T05:33:24.248Z,92.32
2023-01-19T05:35:35.730Z,92.93
2023-01-19T05:37:39.368Z,92.97
2023-01-19T05:39:42.212Z,93.15
2023-01-19T05:41:46.636Z,93.34
2023-01-19T05:43:49.549Z,93.10
2023-01-19T05:45:52.632Z,93.38
2023-01-19T05:47:56.165Z,93.22
2023-01-19T05:49:59.196Z,92.99
2023-01-19T05:52:02.350Z,93.61
2023-01-19T05:54:05.578Z,93.34
2023-01-19T05:56:09.767Z,92.91
2023-01-19T05:58:14.183Z,93.03
2023-01-19T06:00:17.620Z,93.21
2023-01-19T06:02:20.709Z,93.17
2023-01-19T06:04:23.756Z,93.09
2023-01-19T06:06:26.718Z,93.04
2023-01-19T06:08:30.127Z,92.87
2023-01-19T06:10:33.194Z,92.85
2023-01-19T06:12:36.068Z,92.46
2023-01-19T06:14:41.228Z,92.63
2023-01-19T06:16:44.207Z,92.25
2023-01-19T06:18:47.289Z,92.17
2023-01-19T06:20:50.128Z,91.56
2023-01-19T06:22:53.053Z,91.65
2023-01-19T06:24:56.011Z,91.72
2023-01-19T06:26:58.917Z,91.61
2023-01-19T06:29:01.757Z,91.31
2023-01-19T06:31:06.695Z,91.20
2023-01-19T06:33:09.649Z,91.27
2023-01-19T06:35:12.941Z,91.18
2023-01-19T06:37:18.610Z,91.26
2023-01-19T06:39:21.167Z,91.89
2023-01-19T06:41:24.088Z,91.16
2023-01-19T06:43:27.343Z,91.57
2023-01-19T06:45:30.237Z,90.58
2023-01-19T06:47:34.889Z,90.95
2023-01-19T06:49:37.748Z,91.12
2023-01-19T06:51:40.671Z,90.73
2023-01-19T06:53:43.609Z,91.00
2023-01-19T06:55:46.539Z,90.69
2023-01-19T06:57:49.497Z,89.96
2023-01-19T06:59:53.305Z,90.37
2023-01-19T07:01:59.425Z,90.11
2023-01-19T07:04:03.890Z,90.17
2023-01-19T07:06:07.721Z,90.62
2023-01-19T07:08:10.689Z,89.87
2023-01-19T07:10:16.010Z,89.78
2023-01-19T07:12:18.968Z,89.74
2023-01-19T07:14:21.907Z,89.55
2023-01-19T07:16:25.170Z,89.76
2023-01-19T07:18:28.041Z,89.81
2023-01-19T07:20:32.787Z,89.10
2023-01-19T07:22:35.737Z,89.54
2023-01-19T07:24:38.768Z,89.08
2023-01-19T07:26:41.588Z,89.92
2023-01-19T07:28:45.815Z,89.27
2023-01-19T07:30:52.005Z,89.80
2023-01-19T07:32:56.609Z,89.43
2023-01-19T07:34:59.537Z,89.74
2023-01-19T07:37:04.768Z,89.53
2023-01-19T07:39:07.688Z,89.41
2023-01-19T07:41:11.367Z,89.25
2023-01-19T07:43:14.692Z,89.32
2023-01-19T07:45:18.128Z,88.92
2023-01-19T07:47:21.231Z,89.71
2023-01-19T07:49:24.138Z,89.16
2023-01-19T07:51:28.242Z,90.03
2023-01-19T07:53:33.096Z,89.54
2023-01-19T07:55:36.601Z,89.65
2023-01-19T07:57:39.497Z,90.01
2023-01-19T07:59:42.408Z,90.57
2023-01-19T08:01:45.648Z,90.14
2023-01-19T08:03:49.211Z,90.00
2023-01-19T08:05:52.771Z,89.83
2023-01-19T08:07:57.838Z,89.70
2023-01-19T08:10:02.258Z,89.57
2023-01-19T08:12:05.668Z,90.18
2023-01-19T08:14:09.370Z,89.16
2023-01-19T08:16:12.288Z,89.11
2023-01-19T08:18:16.151Z,89.48
2023-01-19T08:20:19.396Z,89.56
2023-01-19T08:22:22.567Z,89.41
2023-01-19T08:24:28.918Z,89.78
2023-01-19T08:26:34.768Z,89.30
2023-01-19T08:28:37.598Z,89.81
2023-01-19T08:30:41.124Z,89.09
2023-01-19T08:32:44.116Z,89.53
2023-01-19T08:34:47.128Z,89.47
2023-01-19T08:36:50.048Z,90.07
2023-01-19T08:38:53.306Z,90.05
2023-01-19T08:40:56.176Z,90.02
2023-01-19T08:43:08.136Z,89.74
2023-01-19T08:45:11.669Z,90.08
2023-01-19T08:47:14.654Z,89.56
2023-01-19T08:49:17.631Z,89.36
2023-01-19T08:51:20.608Z,89.33
2023-01-19T08:53:24.008Z,89.39
2023-01-19T08:55:27.327Z,89.79
2023-01-19T08:57:30.128Z,90.11
2023-01-19T08:59:34.537Z,90.25
2023-01-19T09:01:37.747Z,89.74
2023-01-19T09:03:41.007Z,89.98
2023-01-19T09:05:43.844Z,89.16
2023-01-19T09:07:50.378Z,89.53
2023-01-19T09:09:53.265Z,89.87
2023-01-19T09:11:56.169Z,89.06
2023-01-19T09:13:59.096Z,89.68
2023-01-19T09:16:05.322Z,88.81
2023-01-19T09:18:13.996Z,89.77
2023-01-19T09:20:17.187Z,89.08
2023-01-19T09:22:20.331Z,89.29
2023-01-19T09:24:23.488Z,88.91
2023-01-19T09:26:26.668Z,89.51
2023-01-19T09:28:30.209Z,89.58
2023-01-19T09:30:33.585Z,89.68
2023-01-19T09:32:38.048Z,88.93
2023-01-19T09:34:40.958Z,89.25
2023-01-19T09:36:43.888Z,89.47
2023-01-19T09:38:46.817Z,89.35
2023-01-19T09:40:51.048Z,88.90
2023-01-19T09:42:57.336Z,89.01
2023-01-19T09:45:01.375Z,89.17
2023-01-19T09:47:04.811Z,88.85
2023-01-19T09:49:13.989Z,89.67
2023-01-19T09:51:20.247Z,88.97
2023-01-19T09:53:28.528Z,88.98
2023-01-19T09:55:31.629Z,88.17
2023-01-19T09:57:35.409Z,88.53
2023-01-19T09:59:39.248Z,89.11
2023-01-19T10:01:50.444Z,88.90
2023-01-19T10:04:06.300Z,87.84
2023-01-19T10:06:12.648Z,88.82
2023-01-19T10:08:20.586Z,88.45
2023-01-19T10:10:26.061Z,88.42
2023-01-19T10:12:37.572Z,88.40
2023-01-19T10:14:45.613Z,88.87
2023-01-19T10:16:53.302Z,89.09
2023-01-19T10:18:59.888Z,88.95
2023-01-19T10:21:06.721Z,88.35
2023-01-19T10:23:23.055Z,87.98
2023-01-19T10:25:26.370Z,88.14
2023-01-19T10:27:31.009Z,88.13
2023-01-19T10:29:36.735Z,88.83
2023-01-19T10:31:41.145Z,87.78
2023-01-19T10:33:44.188Z,89.27
2023-01-19T10:35:49.091Z,88.38
2023-01-19T10:37:53.519Z,88.91
2023-01-19T10:40:00.093Z,88.73
2023-01-19T10:42:03.211Z,88.61
2023-01-19T10:44:06.607Z,88.03
2023-01-19T10:46:27.410Z,88.86
2023-01-19T10:48:38.031Z,88.69
2023-01-19T10:50:41.045Z,88.70
2023-01-19T10:52:45.131Z,88.74
2023-01-19T10:54:50.744Z,89.40
2023-01-19T10:56:57.670Z,89.20
2023-01-19T10:59:02.176Z,89.28
2023-01-19T11:01:15.234Z,89.29
2023-01-19T11:03:23.455Z,88.19
2023-01-19T11:05:27.909Z,89.07
2023-01-19T11:07:33.342Z,88.64
2023-01-19T11:09:35.849Z,88.67
2023-01-19T11:11:44.127Z,88.58
2023-01-19T11:14:04.248Z,88.87
2023-01-19T11:16:11.576Z,89.50
2023-01-19T11:18:24.739Z,88.93
2023-01-19T11:20:30.212Z,88.52
2023-01-19T11:22:33.887Z,88.53
2023-01-19T11:24:38.646Z,88.70
2023-01-19T11:26:43.451Z,90.01
2023-01-19T11:28:49.449Z,88.95
2023-01-19T11:30:57.031Z,88.71
2023-01-19T11:33:00.332Z,89.02
2023-01-19T11:35:05.160Z,89.17
2023-01-19T11:37:27.547Z,88.54
2023-01-19T11:39:31.281Z,89.81
2023-01-19T11:41:35.168Z,88.90
2023-01-19T11:43:48.653Z,89.14
2023-01-19T11:45:55.560Z,89.34
2023-01-19T11:47:58.606Z,90.01
2023-01-19T11:50:05.586Z,89.79
2023-01-19T11:52:16.760Z,89.07
2023-01-19T11:54:23.965Z,89.34
2023-01-19T11:56:29.347Z,89.82
2023-01-19T11:58:33.806Z,89.71
2023-01-19T12:00:39.291Z,88.79
2023-01-19T12:02:45.408Z,89.72
2023-01-19T12:04:49.235Z,89.48
2023-01-19T12:06:55.150Z,89.22
2023-01-19T12:09:00.807Z,89.50
2023-01-19T12:11:03.279Z,89.16
2023-01-19T12:13:06.377Z,88.41
2023-01-19T12:15:17.738Z,88.67
2023-01-19T12:17:29.968Z,89.33
2023-01-19T12:19:42.608Z,88.03
2023-01-19T12:21:48.798Z,89.43
2023-01-19T12:24:01.639Z,88.07
2023-01-19T12:26:28.195Z,87.89
2023-01-19T12:28:33.018Z,87.75
2023-01-19T12:30:36.910Z,87.27
2023-01-19T12:32:39.890Z,88.19
2023-01-19T12:34:46.924Z,87.76
2023-01-19T12:36:50.747Z,87.77
2023-01-19T12:38:55.105Z,87.99
2023-01-19T12:41:19.568Z,88.48
2023-01-19T12:43:22.608Z,88.04
2023-01-19T12:45:29.148Z,87.79
2023-01-19T12:47:32.196Z,87.80
2023-01-19T12:49:41.244Z,88.60
2023-01-19T12:51:46.291Z,88.70
2023-01-19T12:53:52.812Z,88.61
2023-01-19T12:56:00.348Z,88.31
2023-01-19T12:58:04.759Z,88.14
2023-01-19T13:00:30.141Z,87.94
2023-01-19T13:02:51.363Z,87.07
2023-01-19T13:05:49.767Z,87.01
2023-01-19T13:08:11.646Z,86.60
2023-01-19T13:10:50.977Z,86.93
2023-01-19T13:13:18.931Z,86.63
2023-01-19T13:15:36.141Z,86.07
2023-01-19T13:17:49.929Z,86.53
2023-01-19T13:20:23.022Z,87.26
2023-01-19T13:22:50.631Z,86.67
2023-01-19T13:25:07.532Z,86.76
2023-01-19T13:27:12.680Z,87.07
2023-01-19T13:29:21.157Z,86.50
2023-01-19T13:31:25.069Z,86.52
2023-01-19T13:33:30.207Z,86.49
2023-01-19T13:35:33.413Z,87.27
2023-01-19T13:37:39.569Z,86.15
2023-01-19T13:39:44.747Z,87.63
2023-01-19T13:41:48.278Z,87.87
2023-01-19T13:43:57.567Z,87.03
2023-01-19T13:46:02.267Z,87.11
2023-01-19T13:48:07.179Z,87.10
2023-01-19T13:50:19.888Z,86.97
2023-01-19T13:52:24.328Z,87.36
2023-01-19T13:54:27.207Z,87.46
2023-01-19T13:56:30.628Z,87.03
2023-01-19T13:58:33.599Z,86.57
2023-01-19T14:00:36.479Z,86.91
2023-01-19T14:02:41.100Z,87.97
2023-01-19T14:04:44.099Z,87.45
2023-01-19T14:06:49.619Z,87.48
2023-01-19T14:09:10.959Z,87.30
2023-01-19T14:11:14.611Z,87.57
2023-01-19T14:13:20.080Z,87.35
2023-01-19T14:15:22.935Z,87.87
2023-01-19T14:17:28.147Z,87.33
2023-01-19T14:19:48.180Z,86.07
2023-01-19T14:22:02.560Z,87.02
2023-01-19T14:24:10.603Z,87.70
2023-01-19T14:26:46.825Z,87.14
2023-01-19T14:28:49.819Z,87.02
2023-01-19T14:30:56.759Z,86.93
2023-01-19T14:32:59.787Z,86.94
2023-01-19T14:35:24.581Z,87.86
2023-01-19T14:37:28.869Z,87.38
2023-01-19T14:39:33.425Z,87.51
2023-01-19T14:41:38.806Z,87.33
2023-01-19T14:43:44.447Z,87.95
2023-01-19T14:45:48.325Z,87.80
2023-01-19T14:47:56.104Z,87.04
2023-01-19T14:50:05.216Z,87.70
2023-01-19T14:52:20.489Z,87.30
2023-01-19T14:54:29.839Z,87.64
2023-01-19T14:56:34.367Z,87.78
2023-01-19T14:58:37.399Z,88.17
2023-01-19T15:00:40.494Z,88.09
2023-01-19T15:02:43.756Z,88.25
2023-01-19T15:04:48.288Z,87.45
2023-01-19T15:06:51.367Z,88.03
2023-01-19T15:08:56.163Z,88.79
2023-01-19T15:10:59.331Z,88.50
2023-01-19T15:13:02.217Z,87.59
2023-01-19T15:15:06.830Z,89.38
2023-01-19T15:17:16.447Z,89.22
2023-01-19T15:19:19.467Z,89.26
2023-01-19T15:21:29.224Z,89.39
2023-01-19T15:23:32.814Z,89.60
2023-01-19T15:25:39.720Z,89.37
2023-01-19T15:27:43.393Z,88.56
2023-01-19T15:29:46.646Z,88.20
2023-01-19T15:31:50.087Z,89.08
2023-01-19T15:34:10.817Z,88.57
2023-01-19T15:36:14.983Z,88.87
2023-01-19T15:38:18.711Z,88.82
2023-01-19T15:40:23.552Z,89.10
2023-01-19T15:42:27.868Z,89.33
2023-01-19T15:44:31.188Z,89.23
2023-01-19T15:46:34.287Z,89.92
2023-01-19T15:48:37.193Z,89.87
2023-01-19T15:50:41.349Z,88.85
2023-01-19T15:52:44.289Z,88.56
2023-01-19T15:54:47.382Z,88.98
2023-01-19T15:56:51.247Z,88.40
2023-01-19T15:58:56.077Z,89.15
2023-01-19T16:00:59.543Z,89.31
2023-01-19T16:03:03.531Z,89.20
2023-01-19T16:05:07.728Z,89.17
2023-01-19T16:07:10.904Z,89.38
2023-01-19T16:09:18.735Z,89.32
2023-01-19T16:11:21.614Z,89.72
2023-01-19T16:13:25.255Z,89.57
2023-01-19T16:15:29.687Z,90.11
2023-01-19T16:17:32.537Z,89.40
2023-01-19T16:19:35.337Z,88.91
2023-01-19T16:21:38.588Z,90.03
2023-01-19T16:23:41.424Z,89.73
2023-01-19T16:25:44.676Z,89.63
2023-01-19T16:27:47.767Z,88.98
2023-01-19T16:29:50.768Z,89.38
2023-01-19T16:31:55.481Z,89.64
2023-01-19T16:33:58.520Z,88.94
2023-01-19T16:36:18.359Z,89.19
2023-01-19T16:38:22.848Z,89.78
2023-01-19T16:40:26.980Z,88.98
2023-01-19T16:42:29.971Z,89.21
2023-01-19T16:44:32.997Z,89.77
2023-01-19T16:46:36.865Z,89.83
2023-01-19T16:48:41.228Z,89.20
2023-01-19T16:50:44.178Z,89.72
2023-01-19T16:52:47.039Z,90.05
2023-01-19T16:54:50.278Z,88.77
2023-01-19T16:56:54.058Z,89.35
2023-01-19T16:58:58.128Z,88.74
2023-01-19T17:01:01.085Z,88.91
2023-01-19T17:03:04.065Z,89.22
2023-01-19T17:05:09.662Z,89.75
2023-01-19T17:07:12.768Z,90.69
2023-01-19T17:09:15.656Z,89.66
2023-01-19T17:11:23.117Z,90.03
2023-01-19T17:13:25.966Z,89.45
2023-01-19T17:15:28.907Z,89.07
2023-01-19T17:17:31.808Z,90.26
2023-01-19T17:19:34.707Z,89.86
2023-01-19T17:21:39.087Z,90.29
2023-01-19T17:23:43.647Z,89.45
2023-01-19T17:25:52.987Z,90.19
2023-01-19T17:27:56.212Z,90.56
2023-01-19T17:29:59.059Z,89.88
2023-01-19T17:32:01.961Z,90.50
2023-01-19T17:34:05.211Z,90.13
2023-01-19T17:36:10.415Z,89.25
2023-01-19T17:38:14.667Z,89.79
2023-01-19T17:40:18.007Z,89.91
2023-01-19T17:42:21.200Z,89.96
2023-01-19T17:44:24.183Z,90.23
2023-01-19T17:46:28.829Z,89.28
2023-01-19T17:48:31.724Z,89.74
2023-01-19T17:50:37.693Z,90.10
2023-01-19T17:52:40.688Z,90.15
2023-01-19T17:54:45.007Z,89.39
2023-01-19T17:56:48.128Z,90.45
2023-01-19T17:58:51.247Z,89.12
2023-01-19T18:00:54.198Z,89.57
2023-01-19T18:02:57.215Z,89.60
2023-01-19T18:05:02.693Z,89.88
2023-01-19T18:07:05.640Z,89.58
2023-01-19T18:09:08.840Z,89.94
2023-01-19T18:11:13.908Z,90.17
2023-01-19T18:13:16.908Z,89.61
2023-01-19T18:15:19.920Z,89.64
2023-01-19T18:17:22.878Z,90.24
2023-01-19T18:19:25.777Z,89.95
2023-01-19T18:21:29.157Z,89.47
2023-01-19T18:23:32.375Z,90.58
2023-01-19T18:25:35.411Z,90.22
2023-01-19T18:27:39.768Z,89.95
2023-01-19T18:29:42.978Z,89.72
2023-01-19T18:31:45.766Z,89.57
2023-01-19T18:33:48.847Z,89.73
2023-01-19T18:35:51.665Z,89.77
2023-01-19T18:37:55.255Z,89.27
2023-01-19T18:40:02.419Z,90.14
2023-01-19T18:42:05.317Z,89.12
2023-01-19T18:44:09.894Z,89.76
2023-01-19T18:46:12.975Z,89.68
2023-01-19T18:48:17.949Z,90.72
2023-01-19T18:50:20.925Z,89.93
2023-01-19T18:52:23.767Z,89.79
2023-01-19T18:54:26.795Z,89.79
2023-01-19T18:56:29.639Z,89.45
2023-01-19T18:58:33.586Z,89.34
2023-01-19T19:00:38.059Z,89.54
2023-01-19T19:02:40.937Z,89.48
2023-01-19T19:04:43.912Z,89.41
2023-01-19T19:06:46.849Z,88.87
2023-01-19T19:08:50.567Z,89.41
2023-01-19T19:10:53.507Z,88.88
2023-01-19T19:12:56.415Z,89.72
2023-01-19T19:14:59.386Z,89.41
2023-01-19T19:17:03.705Z,89.84
2023-01-19T19:19:07.538Z,89.11
2023-01-19T19:21:11.299Z,89.63
2023-01-19T19:23:14.268Z,89.88
2023-01-19T19:25:17.307Z,88.59
2023-01-19T19:27:20.287Z,88.92
2023-01-19T19:29:23.325Z,89.28
2023-01-19T19:31:27.896Z,88.98
2023-01-19T19:33:35.484Z,88.88
2023-01-19T19:35:38.819Z,89.69
2023-01-19T19:37:41.767Z,89.38
2023-01-19T19:39:44.717Z,89.17
2023-01-19T19:41:47.517Z,88.42
2023-01-19T19:43:50.739Z,88.84
2023-01-19T19:45:58.376Z,89.42
2023-01-19T19:48:01.331Z,90.33
2023-01-19T19:50:06.269Z,88.99
2023-01-19T19:52:09.269Z,89.93
2023-01-19T19:54:12.148Z,89.23
2023-01-19T19:56:15.088Z,89.37
2023-01-19T19:58:17.887Z,89.85
2023-01-19T20:00:21.659Z,89.33
2023-01-19T20:02:24.549Z,89.23
2023-01-19T20:04:27.520Z,88.08
2023-01-19T20:06:37.668Z,88.21
2023-01-19T20:08:40.992Z,87.97
2023-01-19T20:10:43.927Z,87.92
2023-01-19T20:12:46.797Z,87.57
2023-01-19T20:14:49.700Z,87.13
2023-01-19T20:16:53.121Z,88.04
2023-01-19T20:18:55.949Z,87.09
2023-01-19T20:21:00.149Z,87.23
2023-01-19T20:23:04.768Z,86.73
2023-01-19T20:25:08.456Z,86.71
2023-01-19T20:27:11.330Z,86.98
2023-01-19T20:29:14.367Z,87.85
2023-01-19T20:31:19.501Z,87.52
2023-01-19T20:33:22.669Z,87.39
2023-01-19T20:35:25.720Z,87.69
2023-01-19T20:37:28.688Z,87.53
2023-01-19T20:39:35.534Z,87.83
2023-01-19T20:41:43.768Z,88.36
2023-01-19T20:43:46.860Z,87.30
2023-01-19T20:45:49.882Z,87.76
2023-01-19T20:47:53.598Z,88.88
2023-01-19T20:49:56.436Z,87.78
2023-01-19T20:51:59.268Z,87.32
2023-01-19T20:54:02.369Z,87.47
2023-01-19T20:56:08.418Z,86.95
2023-01-19T20:58:11.359Z,87.30
2023-01-19T21:00:15.007Z,87.29
2023-01-19T21:02:18.165Z,87.29
2023-01-19T21:04:21.143Z,87.78
2023-01-19T21:06:25.303Z,87.09
2023-01-19T21:08:28.160Z,87.58
2023-01-19T21:10:31.017Z,87.14
2023-01-19T21:12:35.524Z,87.29
2023-01-19T21:14:39.667Z,86.99
2023-01-19T21:16:42.987Z,87.65
2023-01-19T21:18:46.052Z,87.13
2023-01-19T21:20:49.359Z,87.78
2023-01-19T21:22:52.821Z,87.50
2023-01-19T21:24:55.729Z,86.92
2023-01-19T21:26:58.697Z,87.48
2023-01-19T21:29:03.857Z,86.95
2023-01-19T21:31:07.846Z,87.77
2023-01-19T21:33:11.276Z,87.78
2023-01-19T21:35:14.710Z,87.52
2023-01-19T21:37:17.717Z,88.14
2023-01-19T21:39:20.787Z,88.22
2023-01-19T21:41:23.938Z,87.29
2023-01-19T21:43:27.209Z,87.65
2023-01-19T21:45:31.615Z,87.50
2023-01-19T21:47:35.248Z,87.45
2023-01-19T21:49:38.232Z,87.63
2023-01-19T21:51:41.087Z,87.18
2023-01-19T21:53:43.917Z,87.96
2023-01-19T21:55:46.810Z,87.56
2023-01-19T21:57:52.091Z,87.77
2023-01-19T21:59:55.048Z,87.94
2023-01-19T22:01:59.563Z,87.77
2023-01-19T22:04:02.660Z,87.55
2023-01-19T22:06:06.283Z,87.31
2023-01-19T22:08:09.908Z,87.54
2023-01-19T22:10:12.727Z,87.40
2023-01-19T22:12:15.567Z,87.51
2023-01-19T22:14:18.515Z,87.24
2023-01-19T22:16:22.940Z,87.24
2023-01-19T22:18:27.369Z,87.61
2023-01-19T22:20:30.326Z,87.27
2023-01-19T22:22:33.567Z,87.46
2023-01-19T22:24:36.649Z,87.70
2023-01-19T22:26:39.653Z,87.28
2023-01-19T22:28:42.648Z,87.08
2023-01-19T22:30:45.982Z,87.36
2023-01-19T22:32:48.987Z,87.57
2023-01-19T22:34:53.270Z,87.39
2023-01-19T22:36:56.317Z,87.32
2023-01-19T22:39:00.918Z,86.44
2023-01-19T22:41:12.567Z,87.57
2023-01-19T22:43:15.448Z,87.15
2023-01-19T22:45:18.377Z,86.94
2023-01-19T22:47:21.248Z,87.00
2023-01-19T22:49:24.290Z,87.25
2023-01-19T22:51:29.804Z,86.88
2023-01-19T22:53:32.447Z,87.68
2023-01-19T22:55:35.318Z,87.14
2023-01-19T22:57:38.657Z,87.83
2023-01-19T22:59:43.887Z,87.50
2023-01-19T23:01:47.612Z,87.42
2023-01-19T23:03:50.847Z,87.16
2023-01-19T23:05:53.896Z,87.29
2023-01-19T23:07:58.290Z,87.76
2023-01-19T23:10:01.187Z,87.82
2023-01-19T23:12:04.428Z,87.99
2023-01-19T23:14:09.877Z,88.27
2023-01-19T23:16:13.658Z,88.19
2023-01-19T23:18:16.557Z,88.47
2023-01-19T23:20:19.761Z,88.41
2023-01-19T23:22:22.889Z,88.21
2023-01-19T23:24:27.376Z,88.34
2023-01-19T23:26:31.133Z,88.63
2023-01-19T23:28:39.886Z,88.36
2023-01-19T23:30:42.927Z,88.66
2023-01-19T23:32:49.902Z,88.75
2023-01-19T23:34:53.108Z,88.79
2023-01-19T23:36:56.111Z,88.49
2023-01-19T23:39:00.709Z,88.61
2023-01-19T23:41:05.456Z,88.75
2023-01-19T23:43:08.341Z,88.75
2023-01-19T23:45:11.863Z,88.61
2023-01-19T23:47:15.050Z,88.78
2023-01-19T23:49:18.446Z,88.47
2023-01-19T23:51:22.968Z,88.57
2023-01-19T23:53:25.877Z,88.85
2023-01-19T23:55:28.942Z,88.54
2023-01-19T23:57:33.273Z,88.34
2023-01-19T23:59:36.128Z,88.23
